createdAt,value
2023-05-14T00:01:30.236Z,100.00
2023-05-14T00:03:58.823Z,100.00
2023-05-14T00:06:27.475Z,100.00
2023-05-14T00:08:55.873Z,100.00
2023-05-14T00:11:24.262Z,100.00
2023-05-14T00:13:52.643Z,100.00
2023-05-14T00:16:21.157Z,100.00
2023-05-14T00:18:49.567Z,100.00
2023-05-14T00:21:18.282Z,100.00
2023-05-14T00:23:46.714Z,100.00
2023-05-14T00:26:15.081Z,100.00
2023-05-14T00:28:44.010Z,100.00
2023-05-14T00:31:12.406Z,100.00
2023-05-14T00:33:40.758Z,100.00
2023-05-14T00:36:09.524Z,100.00
2023-05-14T00:38:38.011Z,100.00
2023-05-14T00:41:06.500Z,100.00
2023-05-14T00:43:35.013Z,100.00
2023-05-14T00:46:03.733Z,100.00
2023-05-14T00:48:32.151Z,100.00
2023-05-14T00:51:01.226Z,100.00
2023-05-14T00:53:29.785Z,100.00
2023-05-14T00:55:58.579Z,100.00
2023-05-14T00:58:27.324Z,100.00
2023-05-14T01:00:55.919Z,100.00
2023-05-14T01:03:24.436Z,100.00
2023-05-14T01:06:01.969Z,100.00
2023-05-14T01:09:06.986Z,100.00
2023-05-14T01:11:43.996Z,100.00
2023-05-14T01:14:30.322Z,100.00
2023-05-14T01:17:02.283Z,100.00
2023-05-14T01:19:43.345Z,100.00
2023-05-14T01:22:13.022Z,100.00
2023-05-14T01:24:41.864Z,100.00
2023-05-14T01:27:25.675Z,100.00
2023-05-14T01:30:20.663Z,100.00
2023-05-14T01:32:52.738Z,100.00
2023-05-14T01:35:28.361Z,100.00
2023-05-14T01:38:02.335Z,100.00
2023-05-14T01:40:33.028Z,100.00
2023-05-14T01:43:02.188Z,100.00
2023-05-14T01:45:32.221Z,100.00
2023-05-14T01:48:00.602Z,100.00
2023-05-14T01:50:28.985Z,100.00
2023-05-14T01:52:57.407Z,100.00
2023-05-14T01:55:26.447Z,100.00
2023-05-14T01:57:55.604Z,100.00
2023-05-14T02:00:26.758Z,100.00
2023-05-14T02:02:55.344Z,100.00
2023-05-14T02:05:23.800Z,100.00
2023-05-14T02:07:52.334Z,100.00
2023-05-14T02:10:20.947Z,100.00
2023-05-14T02:12:49.496Z,100.00
2023-05-14T02:15:17.966Z,100.00
2023-05-14T02:17:46.583Z,100.00
2023-05-14T02:20:15.179Z,100.00
2023-05-14T02:22:46.503Z,100.00
2023-05-14T02:25:14.861Z,100.00
2023-05-14T02:27:43.239Z,100.00
2023-05-14T02:30:15.787Z,100.00
2023-05-14T02:32:44.282Z,100.00
2023-05-14T02:35:12.696Z,100.00
2023-05-14T02:37:41.051Z,100.00
2023-05-14T02:40:10.106Z,100.00
2023-05-14T02:42:38.493Z,100.00
2023-05-14T02:45:07.549Z,100.00
2023-05-14T02:47:37.790Z,100.00
2023-05-14T02:50:07.397Z,100.00
2023-05-14T02:52:36.490Z,100.00
2023-05-14T02:55:05.432Z,100.00
2023-05-14T02:57:34.018Z,100.00
2023-05-14T03:00:05.222Z,100.00
2023-05-14T03:02:34.100Z,100.00
2023-05-14T03:05:03.412Z,100.00
2023-05-14T03:07:31.779Z,100.00
2023-05-14T03:10:01.348Z,100.00
2023-05-14T03:12:29.750Z,100.00
2023-05-14T03:14:58.170Z,100.00
2023-05-14T03:17:26.643Z,100.00
2023-05-14T03:19:55.043Z,100.00
2023-05-14T03:22:23.419Z,100.00
2023-05-14T03:24:51.777Z,100.00
2023-05-14T03:27:20.236Z,100.00
2023-05-14T03:29:48.622Z,100.00
2023-05-14T03:32:17.084Z,100.00
2023-05-14T03:34:45.812Z,100.00
2023-05-14T03:37:14.209Z,100.00
2023-05-14T03:39:42.601Z,100.00
2023-05-14T03:42:11.017Z,100.00
2023-05-14T03:44:39.483Z,100.00
2023-05-14T03:47:07.927Z,100.00
2023-05-14T03:49:36.298Z,100.00
2023-05-14T03:52:04.804Z,100.00
2023-05-14T03:54:33.190Z,100.00
2023-05-14T03:57:02.857Z,100.00
2023-05-14T03:59:31.456Z,100.00
2023-05-14T04:01:59.952Z,100.00
2023-05-14T04:04:28.440Z,100.00
2023-05-14T04:06:57.111Z,100.00
2023-05-14T04:09:25.536Z,100.00
2023-05-14T04:11:53.893Z,100.00
2023-05-14T04:14:22.335Z,100.00
2023-05-14T04:16:50.718Z,100.00
2023-05-14T04:19:19.933Z,100.00
2023-05-14T04:21:48.382Z,100.00
2023-05-14T04:24:18.132Z,100.00
2023-05-14T04:26:46.584Z,100.00
2023-05-14T04:29:15.068Z,100.00
2023-05-14T04:31:44.067Z,100.00
2023-05-14T04:34:12.539Z,100.00
2023-05-14T04:36:41.254Z,100.00
2023-05-14T04:39:10.854Z,100.00
2023-05-14T04:41:39.335Z,100.00
2023-05-14T04:44:08.111Z,100.00
2023-05-14T04:46:36.644Z,100.00
2023-05-14T04:49:05.321Z,100.00
2023-05-14T04:51:33.693Z,100.00
2023-05-14T04:54:02.193Z,100.00
2023-05-14T04:56:30.661Z,100.00
2023-05-14T04:58:59.056Z,100.00
2023-05-14T05:01:27.591Z,100.00
2023-05-14T05:03:56.313Z,100.00
2023-05-14T05:06:25.501Z,100.00
2023-05-14T05:08:53.889Z,100.00
2023-05-14T05:11:22.411Z,100.00
2023-05-14T05:13:51.618Z,100.00
2023-05-14T05:16:20.066Z,100.00
2023-05-14T05:18:48.552Z,100.00
2023-05-14T05:21:17.175Z,100.00
2023-05-14T05:23:45.539Z,100.00
2023-05-14T05:26:13.966Z,98.85
2023-05-14T05:28:42.344Z,97.42
2023-05-14T05:31:10.800Z,100.00
2023-05-14T05:33:39.391Z,100.00
2023-05-14T05:36:08.454Z,100.00
2023-05-14T05:38:36.880Z,100.00
2023-05-14T05:41:05.290Z,100.00
2023-05-14T05:43:34.983Z,100.00
2023-05-14T05:46:03.441Z,100.00
2023-05-14T05:48:31.893Z,100.00
2023-05-14T05:51:01.412Z,100.00
2023-05-14T05:53:29.738Z,100.00
2023-05-14T05:55:58.040Z,100.00
2023-05-14T05:58:27.174Z,100.00
2023-05-14T06:00:56.081Z,100.00
2023-05-14T06:03:24.604Z,100.00
2023-05-14T06:05:53.576Z,100.00
2023-05-14T06:08:22.057Z,100.00
2023-05-14T06:10:50.465Z,99.85
2023-05-14T06:13:18.964Z,100.00
2023-05-14T06:15:47.470Z,100.00
2023-05-14T06:18:15.887Z,92.12
2023-05-14T06:20:44.391Z,93.83
2023-05-14T06:23:13.138Z,100.00
2023-05-14T06:25:41.953Z,99.04
2023-05-14T06:28:10.389Z,98.00
2023-05-14T06:30:38.870Z,100.00
2023-05-14T06:33:07.486Z,98.96
2023-05-14T06:35:35.891Z,97.44
2023-05-14T06:38:04.550Z,99.40
2023-05-14T06:40:33.154Z,98.84
2023-05-14T06:43:01.593Z,99.28
2023-05-14T06:45:33.108Z,100.00
2023-05-14T06:48:01.936Z,100.00
2023-05-14T06:50:30.597Z,97.53
2023-05-14T06:52:59.048Z,94.57
2023-05-14T06:55:27.437Z,96.67
2023-05-14T06:57:55.823Z,94.52
2023-05-14T07:00:24.851Z,96.10
2023-05-14T07:02:53.647Z,94.18
2023-05-14T07:05:22.083Z,97.22
2023-05-14T07:07:50.431Z,94.42
2023-05-14T07:10:18.837Z,90.10
2023-05-14T07:12:47.257Z,94.64
2023-05-14T07:15:15.627Z,93.44
2023-05-14T07:17:44.011Z,93.47
2023-05-14T07:20:12.898Z,89.49
2023-05-14T07:22:41.320Z,94.57
2023-05-14T07:25:10.036Z,88.14
2023-05-14T07:27:38.424Z,95.56
2023-05-14T07:30:07.615Z,93.25
2023-05-14T07:32:36.006Z,94.48
2023-05-14T07:35:04.853Z,94.05
2023-05-14T07:37:33.265Z,91.97
2023-05-14T07:40:01.687Z,92.48
2023-05-14T07:42:36.659Z,91.42
2023-05-14T07:45:06.820Z,93.10
2023-05-14T07:47:35.276Z,95.10
2023-05-14T07:50:04.475Z,93.02
2023-05-14T07:52:32.848Z,95.69
2023-05-14T07:55:02.330Z,94.46
2023-05-14T07:57:30.695Z,93.81
2023-05-14T07:59:59.095Z,95.57
2023-05-14T08:02:27.748Z,94.88
2023-05-14T08:04:56.535Z,96.75
2023-05-14T08:07:24.891Z,96.43
2023-05-14T08:09:53.281Z,95.58
2023-05-14T08:12:21.734Z,91.44
2023-05-14T08:14:50.167Z,94.72
2023-05-14T08:17:18.860Z,96.29
2023-05-14T08:19:47.833Z,96.32
2023-05-14T08:22:16.428Z,95.62
2023-05-14T08:24:44.952Z,90.40
2023-05-14T08:27:13.402Z,95.66
2023-05-14T08:29:42.434Z,95.12
2023-05-14T08:32:19.827Z,97.37
2023-05-14T08:34:52.002Z,96.89
2023-05-14T08:37:20.654Z,96.78
2023-05-14T08:39:49.202Z,97.41
2023-05-14T08:42:23.027Z,100.00
2023-05-14T08:44:57.075Z,98.70
2023-05-14T08:47:26.377Z,99.29
2023-05-14T08:50:07.495Z,98.66
2023-05-14T08:52:36.927Z,96.27
2023-05-14T08:55:07.358Z,96.10
2023-05-14T08:57:36.633Z,94.75
2023-05-14T09:00:09.523Z,96.49
2023-05-14T09:02:38.453Z,99.76
2023-05-14T09:05:08.330Z,97.79
2023-05-14T09:07:37.165Z,96.86
2023-05-14T09:10:06.246Z,99.71
2023-05-14T09:12:34.603Z,94.95
2023-05-14T09:15:03.023Z,99.19
2023-05-14T09:17:31.527Z,99.49
2023-05-14T09:20:02.524Z,99.16
2023-05-14T09:22:34.556Z,99.28
2023-05-14T09:25:12.873Z,98.55
2023-05-14T09:27:41.233Z,97.73
2023-05-14T09:30:14.316Z,97.66
2023-05-14T09:32:48.191Z,99.73
2023-05-14T09:35:21.490Z,97.81
2023-05-14T09:37:52.889Z,99.14
2023-05-14T09:40:25.747Z,98.46
2023-05-14T09:42:54.314Z,99.68
2023-05-14T09:45:22.731Z,98.51
2023-05-14T09:47:51.168Z,99.60
2023-05-14T09:50:19.576Z,100.00
2023-05-14T09:52:48.012Z,100.00
2023-05-14T09:55:17.171Z,100.00
2023-05-14T09:57:45.998Z,99.90
2023-05-14T10:00:15.036Z,100.00
2023-05-14T10:02:46.074Z,100.00
2023-05-14T10:05:16.799Z,100.00
2023-05-14T10:07:49.842Z,100.00
2023-05-14T10:10:21.290Z,100.00
2023-05-14T10:13:05.702Z,100.00
2023-05-14T10:15:49.987Z,100.00
2023-05-14T10:18:23.460Z,100.00
2023-05-14T10:21:12.365Z,100.00
2023-05-14T10:23:41.906Z,100.00
2023-05-14T10:26:11.783Z,100.00
2023-05-14T10:28:40.344Z,100.00
2023-05-14T10:31:11.593Z,100.00
2023-05-14T10:33:51.704Z,100.00
2023-05-14T10:36:20.492Z,100.00
2023-05-14T10:39:00.208Z,100.00
2023-05-14T10:41:29.263Z,100.00
2023-05-14T10:44:00.191Z,100.00
2023-05-14T10:46:28.608Z,100.00
2023-05-14T10:48:58.418Z,100.00
2023-05-14T10:51:27.049Z,100.00
2023-05-14T10:53:56.134Z,100.00
2023-05-14T10:56:24.540Z,100.00
2023-05-14T10:58:52.882Z,100.00
2023-05-14T11:01:25.620Z,100.00
2023-05-14T11:03:54.884Z,100.00
2023-05-14T11:06:23.563Z,100.00
2023-05-14T11:08:52.911Z,100.00
2023-05-14T11:11:21.533Z,100.00
2023-05-14T11:13:50.658Z,100.00
2023-05-14T11:16:23.557Z,100.00
2023-05-14T11:19:04.256Z,100.00
2023-05-14T11:21:35.646Z,100.00
2023-05-14T11:24:06.303Z,99.31
2023-05-14T11:26:35.567Z,100.00
2023-05-14T11:29:04.175Z,100.00
2023-05-14T11:31:32.747Z,100.00
2023-05-14T11:34:02.019Z,100.00
2023-05-14T11:36:30.407Z,100.00
2023-05-14T11:38:58.790Z,100.00
2023-05-14T11:41:28.995Z,100.00
2023-05-14T11:43:57.502Z,100.00
2023-05-14T11:46:27.119Z,100.00
2023-05-14T11:48:55.536Z,100.00
2023-05-14T11:51:24.343Z,100.00
2023-05-14T11:53:52.766Z,100.00
2023-05-14T11:56:23.522Z,100.00
2023-05-14T11:58:59.122Z,100.00
2023-05-14T12:01:29.440Z,100.00
2023-05-14T12:03:57.998Z,100.00
2023-05-14T12:06:33.338Z,100.00
2023-05-14T12:09:02.471Z,100.00
2023-05-14T12:11:34.358Z,100.00
2023-05-14T12:14:02.861Z,100.00
2023-05-14T12:16:34.792Z,100.00
2023-05-14T12:19:04.621Z,100.00
2023-05-14T12:21:33.183Z,100.00
2023-05-14T12:24:01.847Z,100.00
2023-05-14T12:26:33.611Z,100.00
2023-05-14T12:29:04.529Z,100.00
2023-05-14T12:31:37.339Z,100.00
2023-05-14T12:34:06.144Z,100.00
2023-05-14T12:36:34.577Z,100.00
2023-05-14T12:39:04.750Z,100.00
2023-05-14T12:41:34.089Z,100.00
2023-05-14T12:44:03.924Z,100.00
2023-05-14T12:46:32.568Z,100.00
2023-05-14T12:49:01.515Z,100.00
2023-05-14T12:51:30.060Z,100.00
2023-05-14T12:53:58.446Z,100.00
2023-05-14T12:56:29.306Z,100.00
2023-05-14T12:58:57.716Z,100.00
2023-05-14T13:01:26.416Z,100.00
2023-05-14T13:03:54.918Z,100.00
2023-05-14T13:06:23.485Z,100.00
2023-05-14T13:08:51.848Z,100.00
2023-05-14T13:11:20.299Z,100.00
2023-05-14T13:13:48.753Z,100.00
2023-05-14T13:16:17.721Z,100.00
2023-05-14T13:18:46.777Z,100.00
2023-05-14T13:21:15.238Z,100.00
2023-05-14T13:23:43.620Z,100.00
2023-05-14T13:26:12.001Z,100.00
2023-05-14T13:28:40.377Z,100.00
2023-05-14T13:31:10.933Z,100.00
2023-05-14T13:33:42.074Z,100.00
2023-05-14T13:36:11.689Z,100.00
2023-05-14T13:38:40.488Z,100.00
2023-05-14T13:41:09.615Z,100.00
2023-05-14T13:43:38.067Z,100.00
2023-05-14T13:46:07.782Z,100.00
2023-05-14T13:48:38.089Z,100.00
2023-05-14T13:51:06.612Z,100.00
2023-05-14T13:53:35.051Z,100.00
2023-05-14T13:56:03.544Z,100.00
2023-05-14T13:58:32.055Z,100.00
2023-05-14T14:01:00.440Z,100.00
2023-05-14T14:03:28.901Z,100.00
2023-05-14T14:05:57.289Z,100.00
2023-05-14T14:08:25.682Z,100.00
2023-05-14T14:10:56.062Z,100.00
2023-05-14T14:13:24.592Z,100.00
2023-05-14T14:15:53.266Z,100.00
2023-05-14T14:18:21.825Z,100.00
2023-05-14T14:20:50.253Z,100.00
2023-05-14T14:23:18.830Z,100.00
2023-05-14T14:25:47.211Z,100.00
2023-05-14T14:28:15.585Z,100.00
2023-05-14T14:30:44.760Z,100.00
2023-05-14T14:33:13.114Z,100.00
2023-05-14T14:35:41.513Z,100.00
2023-05-14T14:38:10.004Z,100.00
2023-05-14T14:40:38.438Z,100.00
2023-05-14T14:43:06.891Z,100.00
2023-05-14T14:45:35.331Z,100.00
2023-05-14T14:48:26.814Z,100.00
2023-05-14T14:50:56.297Z,100.00
2023-05-14T14:53:26.061Z,100.00
2023-05-14T14:55:54.665Z,100.00
2023-05-14T14:58:23.507Z,100.00
2023-05-14T15:00:54.755Z,100.00
2023-05-14T15:03:23.801Z,100.00
2023-05-14T15:05:55.603Z,100.00
2023-05-14T15:08:28.769Z,100.00
2023-05-14T15:11:00.891Z,100.00
2023-05-14T15:13:30.217Z,100.00
2023-05-14T15:15:58.568Z,100.00
2023-05-14T15:18:27.362Z,100.00
2023-05-14T15:20:55.773Z,100.00
2023-05-14T15:23:24.198Z,100.00
2023-05-14T15:25:52.567Z,100.00
2023-05-14T15:28:20.930Z,100.00
2023-05-14T15:30:49.573Z,100.00
2023-05-14T15:33:20.078Z,100.00
2023-05-14T15:35:48.485Z,100.00
2023-05-14T15:38:17.015Z,100.00
2023-05-14T15:40:45.424Z,100.00
2023-05-14T15:43:13.918Z,100.00
2023-05-14T15:45:42.299Z,100.00
2023-05-14T15:48:10.922Z,100.00
2023-05-14T15:50:39.507Z,100.00
2023-05-14T15:53:07.930Z,100.00
2023-05-14T15:55:36.473Z,100.00
2023-05-14T15:58:05.060Z,100.00
2023-05-14T16:00:33.673Z,100.00
2023-05-14T16:03:02.090Z,100.00
2023-05-14T16:05:31.085Z,100.00
2023-05-14T16:08:00.525Z,100.00
2023-05-14T16:10:28.885Z,100.00
2023-05-14T16:12:57.240Z,100.00
2023-05-14T16:15:25.851Z,100.00
2023-05-14T16:17:54.360Z,100.00
2023-05-14T16:20:23.123Z,100.00
2023-05-14T16:22:51.769Z,100.00
2023-05-14T16:25:20.139Z,100.00
2023-05-14T16:27:48.488Z,100.00
2023-05-14T16:30:16.927Z,100.00
2023-05-14T16:32:49.427Z,100.00
2023-05-14T16:35:17.851Z,100.00
2023-05-14T16:37:46.325Z,100.00
2023-05-14T16:40:16.928Z,100.00
2023-05-14T16:42:47.793Z,100.00
2023-05-14T16:45:17.821Z,100.00
2023-05-14T16:47:46.267Z,100.00
2023-05-14T16:50:14.790Z,100.00
2023-05-14T16:52:43.333Z,100.00
2023-05-14T16:55:11.926Z,100.00
2023-05-14T16:57:40.332Z,100.00
2023-05-14T17:00:10.332Z,100.00
2023-05-14T17:02:39.086Z,100.00
2023-05-14T17:05:08.292Z,100.00
2023-05-14T17:07:38.066Z,100.00
2023-05-14T17:10:07.842Z,100.00
2023-05-14T17:12:36.302Z,100.00
2023-05-14T17:15:05.683Z,100.00
2023-05-14T17:17:34.863Z,100.00
2023-05-14T17:20:03.385Z,100.00
2023-05-14T17:22:32.828Z,100.00
2023-05-14T17:25:01.492Z,100.00
2023-05-14T17:27:32.619Z,100.00
2023-05-14T17:30:04.652Z,100.00
2023-05-14T17:32:33.172Z,100.00
2023-05-14T17:35:01.730Z,100.00
2023-05-14T17:37:30.379Z,100.00
2023-05-14T17:39:58.780Z,100.00
2023-05-14T17:42:27.409Z,100.00
2023-05-14T17:44:55.996Z,100.00
2023-05-14T17:47:24.411Z,100.00
2023-05-14T17:49:52.904Z,100.00
2023-05-14T17:52:21.695Z,100.00
2023-05-14T17:54:53.023Z,100.00
2023-05-14T17:57:22.122Z,100.00
2023-05-14T17:59:50.543Z,100.00
2023-05-14T18:02:18.884Z,100.00
2023-05-14T18:04:47.616Z,100.00
2023-05-14T18:07:16.074Z,100.00
2023-05-14T18:09:44.400Z,100.00
2023-05-14T18:12:12.756Z,100.00
2023-05-14T18:14:41.921Z,100.00
2023-05-14T18:17:12.289Z,100.00
2023-05-14T18:19:41.923Z,100.00
2023-05-14T18:22:10.326Z,100.00
2023-05-14T18:24:38.721Z,100.00
2023-05-14T18:27:07.671Z,100.00
2023-05-14T18:29:36.076Z,100.00
2023-05-14T18:32:04.496Z,100.00
2023-05-14T18:34:32.898Z,100.00
2023-05-14T18:37:01.916Z,100.00
2023-05-14T18:39:30.302Z,100.00
2023-05-14T18:41:58.726Z,100.00
2023-05-14T18:44:27.192Z,100.00
2023-05-14T18:46:56.589Z,100.00
2023-05-14T18:49:25.004Z,100.00
2023-05-14T18:51:53.335Z,100.00
2023-05-14T18:54:21.925Z,100.00
2023-05-14T18:56:50.306Z,100.00
2023-05-14T18:59:18.766Z,100.00
2023-05-14T19:01:47.210Z,100.00
2023-05-14T19:04:15.627Z,100.00
2023-05-14T19:06:43.970Z,100.00
2023-05-14T19:09:12.438Z,100.00
2023-05-14T19:11:40.756Z,100.00
2023-05-14T19:14:10.259Z,100.00
2023-05-14T19:16:38.661Z,100.00
2023-05-14T19:19:07.093Z,100.00
2023-05-14T19:21:35.626Z,100.00
2023-05-14T19:24:04.071Z,100.00
2023-05-14T19:26:32.475Z,100.00
2023-05-14T19:29:00.889Z,100.00
2023-05-14T19:31:29.839Z,100.00
2023-05-14T19:33:58.207Z,100.00
2023-05-14T19:36:26.651Z,100.00
2023-05-14T19:38:54.966Z,100.00
2023-05-14T19:41:23.970Z,100.00
2023-05-14T19:43:52.291Z,100.00
2023-05-14T19:46:20.745Z,100.00
2023-05-14T19:48:49.465Z,100.00
2023-05-14T19:51:17.819Z,100.00
2023-05-14T19:53:46.272Z,100.00
2023-05-14T19:56:14.635Z,100.00
2023-05-14T19:58:43.020Z,100.00
2023-05-14T20:01:12.920Z,100.00
2023-05-14T20:03:41.454Z,100.00
2023-05-14T20:06:10.096Z,100.00
2023-05-14T20:08:38.894Z,100.00
2023-05-14T20:11:07.617Z,100.00
2023-05-14T20:13:37.438Z,100.00
2023-05-14T20:16:06.201Z,100.00
2023-05-14T20:18:34.668Z,100.00
2023-05-14T20:21:03.137Z,100.00
2023-05-14T20:23:31.578Z,100.00
2023-05-14T20:26:02.615Z,100.00
2023-05-14T20:28:31.403Z,100.00
2023-05-14T20:31:01.156Z,100.00
2023-05-14T20:33:30.069Z,100.00
2023-05-14T20:35:58.492Z,100.00
2023-05-14T20:38:30.130Z,100.00
2023-05-14T20:40:58.805Z,100.00
2023-05-14T20:43:28.704Z,100.00
2023-05-14T20:45:59.869Z,100.00
2023-05-14T20:48:28.279Z,100.00
2023-05-14T20:50:56.695Z,100.00
2023-05-14T20:53:26.272Z,100.00
2023-05-14T20:55:54.642Z,100.00
2023-05-14T20:58:23.159Z,100.00
2023-05-14T21:00:51.968Z,100.00
2023-05-14T21:03:20.472Z,100.00
2023-05-14T21:05:48.937Z,100.00
2023-05-14T21:08:17.676Z,100.00
2023-05-14T21:10:46.113Z,100.00
2023-05-14T21:13:14.628Z,100.00
2023-05-14T21:15:43.321Z,100.00
2023-05-14T21:18:13.096Z,100.00
2023-05-14T21:20:41.895Z,100.00
2023-05-14T21:23:10.336Z,100.00
2023-05-14T21:25:38.686Z,100.00
2023-05-14T21:28:07.012Z,100.00
2023-05-14T21:30:35.371Z,100.00
2023-05-14T21:33:04.095Z,100.00
2023-05-14T21:35:32.746Z,100.00
2023-05-14T21:38:01.338Z,100.00
2023-05-14T21:40:29.653Z,100.00
2023-05-14T21:42:58.025Z,100.00
2023-05-14T21:45:27.022Z,100.00
2023-05-14T21:47:55.636Z,100.00
2023-05-14T21:50:24.040Z,100.00
2023-05-14T21:52:52.395Z,100.00
2023-05-14T21:55:20.829Z,100.00
2023-05-14T21:57:49.339Z,100.00
2023-05-14T22:00:24.102Z,100.00
2023-05-14T22:02:54.406Z,100.00
2023-05-14T22:05:23.358Z,100.00
2023-05-14T22:07:52.958Z,100.00
2023-05-14T22:10:21.599Z,100.00
2023-05-14T22:12:49.996Z,100.00
2023-05-14T22:15:18.453Z,100.00
2023-05-14T22:17:48.399Z,100.00
2023-05-14T22:20:16.924Z,100.00
2023-05-14T22:22:45.257Z,100.00
2023-05-14T22:25:13.697Z,100.00
2023-05-14T22:27:42.026Z,100.00
2023-05-14T22:30:10.724Z,100.00
2023-05-14T22:32:39.225Z,100.00
2023-05-14T22:35:07.708Z,100.00
2023-05-14T22:37:36.102Z,100.00
2023-05-14T22:40:06.128Z,100.00
2023-05-14T22:42:34.455Z,100.00
2023-05-14T22:45:02.883Z,100.00
2023-05-14T22:47:31.583Z,100.00
2023-05-14T22:49:59.945Z,100.00
2023-05-14T22:52:28.294Z,100.00
2023-05-14T22:54:56.753Z,100.00
2023-05-14T22:57:25.146Z,100.00
2023-05-14T22:59:53.596Z,100.00
2023-05-14T23:02:22.189Z,100.00
2023-05-14T23:04:50.746Z,100.00
2023-05-14T23:07:19.380Z,100.00
2023-05-14T23:09:48.192Z,100.00
2023-05-14T23:12:16.668Z,100.00
2023-05-14T23:14:45.184Z,100.00
2023-05-14T23:17:13.634Z,100.00
2023-05-14T23:19:42.316Z,100.00
2023-05-14T23:22:10.726Z,100.00
2023-05-14T23:24:39.072Z,100.00
2023-05-14T23:27:07.588Z,100.00
2023-05-14T23:29:37.014Z,100.00
2023-05-14T23:32:05.525Z,100.00
2023-05-14T23:34:34.563Z,100.00
2023-05-14T23:37:04.090Z,100.00
2023-05-14T23:39:32.532Z,100.00
2023-05-14T23:42:00.873Z,100.00
2023-05-14T23:44:29.266Z,100.00
2023-05-14T23:46:57.663Z,100.00
2023-05-14T23:49:26.284Z,100.00
2023-05-14T23:51:54.656Z,100.00
2023-05-14T23:54:22.986Z,100.00
2023-05-14T23:56:51.500Z,100.00
2023-05-14T23:59:20.166Z,100.00
